createdAt,value
2022-10-11T00:02:00.654Z,63.50
2022-10-11T00:07:04.626Z,63.20
2022-10-11T00:12:07.462Z,63.10
2022-10-11T00:17:10.062Z,63.30
2022-10-11T00:22:14.118Z,63.10
2022-10-11T00:27:16.793Z,62.80
2022-10-11T00:32:19.449Z,62.90
2022-10-11T00:37:23.374Z,62.80
2022-10-11T00:42:26.198Z,63.00
2022-10-11T00:47:28.819Z,63.80
2022-10-11T00:52:35.274Z,64.10
2022-10-11T00:57:39.896Z,63.80
2022-10-11T01:02:42.980Z,63.80
2022-10-11T01:07:47.756Z,63.70
2022-10-11T01:12:55.292Z,63.80
2022-10-11T01:18:02.535Z,62.70
2022-10-11T01:23:20.026Z,63.80
2022-10-11T01:28:30.475Z,63.70
2022-10-11T01:33:36.694Z,63.60
2022-10-11T01:38:42.948Z,63.60
2022-10-11T01:43:46.494Z,63.60
2022-10-11T01:48:51.485Z,63.50
2022-10-11T01:54:00.317Z,63.10
2022-10-11T01:59:09.941Z,63.40
2022-10-11T02:04:16.962Z,63.50
2022-10-11T02:09:23.270Z,63.30
2022-10-11T02:14:27.870Z,63.30
2022-10-11T02:19:35.297Z,63.10
2022-10-11T02:24:40.197Z,63.00
2022-10-11T02:29:44.826Z,63.00
2022-10-11T02:34:51.901Z,62.90
2022-10-11T02:39:56.370Z,62.90
2022-10-11T02:45:01.997Z,62.80
2022-10-11T02:50:06.617Z,62.40
2022-10-11T02:55:09.834Z,62.50
2022-10-11T03:00:13.162Z,62.40
2022-10-11T03:05:17.138Z,62.50
2022-10-11T03:10:19.753Z,62.50
2022-10-11T03:15:22.377Z,62.50
2022-10-11T03:20:26.680Z,62.30
2022-10-11T03:25:29.334Z,62.30
2022-10-11T03:30:32.253Z,61.80
2022-10-11T03:35:36.215Z,62.00
2022-10-11T03:40:38.811Z,61.90
2022-10-11T03:45:42.558Z,61.60
2022-10-11T03:50:46.479Z,62.10
2022-10-11T03:55:52.684Z,61.50
2022-10-11T04:00:55.449Z,61.60
2022-10-11T04:05:59.417Z,61.50
2022-10-11T04:11:02.003Z,61.40
2022-10-11T04:16:05.063Z,61.70
2022-10-11T04:21:09.274Z,61.50
2022-10-11T04:26:11.889Z,61.00
2022-10-11T04:31:14.483Z,61.10
2022-10-11T04:36:18.420Z,60.90
2022-10-11T04:41:21.017Z,61.00
2022-10-11T04:46:23.660Z,61.00
2022-10-11T04:51:28.730Z,60.80
2022-10-11T04:56:31.369Z,60.70
2022-10-11T05:01:34.411Z,60.50
2022-10-11T05:06:38.386Z,60.60
2022-10-11T05:11:40.961Z,60.50
2022-10-11T05:16:43.614Z,60.60
2022-10-11T05:21:47.567Z,60.50
2022-10-11T05:26:50.174Z,60.30
2022-10-11T05:31:52.770Z,60.40
2022-10-11T05:36:57.681Z,60.30
2022-10-11T05:42:00.263Z,60.20
2022-10-11T05:47:03.117Z,60.10
2022-10-11T05:52:09.050Z,60.10
2022-10-11T05:57:11.658Z,60.20
2022-10-11T06:02:14.524Z,60.20
2022-10-11T06:07:18.457Z,60.00
2022-10-11T06:12:21.794Z,59.80
2022-10-11T06:17:24.569Z,59.90
2022-10-11T06:22:28.572Z,60.10
2022-10-11T06:27:31.222Z,60.00
2022-10-11T06:32:33.803Z,59.90
2022-10-11T06:37:37.738Z,60.30
2022-10-11T06:42:40.438Z,60.60
2022-10-11T06:47:43.077Z,60.80
2022-10-11T06:52:47.282Z,60.80
2022-10-11T06:57:52.663Z,61.50
2022-10-11T07:02:55.287Z,61.10
2022-10-11T07:07:59.238Z,61.30
2022-10-11T07:13:02.675Z,61.30
2022-10-11T07:18:22.388Z,61.30
2022-10-11T07:23:26.478Z,60.80
2022-10-11T07:28:30.389Z,60.60
2022-10-11T07:33:33.151Z,60.60
2022-10-11T07:38:39.399Z,60.70
2022-10-11T07:43:43.714Z,60.70
2022-10-11T07:48:46.444Z,60.60
2022-10-11T07:53:51.044Z,60.90
2022-10-11T07:58:54.472Z,61.00
2022-10-11T08:03:59.821Z,62.10
2022-10-11T08:09:08.643Z,62.60
2022-10-11T08:14:11.335Z,62.20
2022-10-11T08:19:14.020Z,62.60
2022-10-11T08:24:20.723Z,63.20
2022-10-11T08:29:23.369Z,63.20
2022-10-11T08:34:26.049Z,63.40
2022-10-11T08:39:30.057Z,63.60
2022-10-11T08:44:58.429Z,63.90
2022-10-11T08:49:59.251Z,63.90
2022-10-11T08:55:05.287Z,64.60
2022-10-11T09:00:09.301Z,64.60
2022-10-11T09:05:14.181Z,64.50
2022-10-11T09:10:34.453Z,64.60
2022-10-11T09:15:42.458Z,65.20
2022-10-11T09:20:50.090Z,65.20
2022-10-11T09:25:55.709Z,65.20
2022-10-11T09:31:00.256Z,65.00
2022-10-11T09:36:03.693Z,65.00
2022-10-11T09:41:10.163Z,65.20
2022-10-11T09:46:19.073Z,65.00
2022-10-11T09:51:23.051Z,63.60
2022-10-11T09:56:26.929Z,63.20
2022-10-11T10:01:33.466Z,62.90
2022-10-11T10:06:36.143Z,62.80
2022-10-11T10:11:38.834Z,62.60
2022-10-11T10:16:43.095Z,62.80
2022-10-11T10:21:47.531Z,63.20
2022-10-11T10:27:17.954Z,63.30
2022-10-11T10:32:25.722Z,63.30
2022-10-11T10:37:33.029Z,63.00
2022-10-11T10:42:35.701Z,62.80
2022-10-11T10:47:54.307Z,62.70
2022-10-11T10:53:01.691Z,62.50
2022-10-11T10:58:09.640Z,62.60
2022-10-11T11:03:15.872Z,62.50
2022-10-11T11:08:28.415Z,62.30
2022-10-11T11:13:34.972Z,62.00
2022-10-11T11:18:41.662Z,62.00
2022-10-11T11:23:48.680Z,61.80
2022-10-11T11:28:58.735Z,61.50
2022-10-11T11:34:06.054Z,61.30
2022-10-11T11:39:14.816Z,62.60
2022-10-11T11:44:27.083Z,63.40
2022-10-11T11:49:34.725Z,63.60
2022-10-11T11:54:43.417Z,63.60
2022-10-11T11:59:47.331Z,64.10
2022-10-11T12:04:52.143Z,64.30
2022-10-11T12:09:55.668Z,64.00
2022-10-11T12:15:13.154Z,63.90
2022-10-11T12:20:21.982Z,63.80
2022-10-11T12:25:33.065Z,64.00
2022-10-11T12:30:54.701Z,63.90
2022-10-11T12:36:04.008Z,64.00
2022-10-11T12:41:28.836Z,63.90
2022-10-11T12:46:42.261Z,63.60
2022-10-11T12:51:51.257Z,63.50
2022-10-11T12:57:02.155Z,63.40
2022-10-11T13:02:05.268Z,63.40
2022-10-11T13:07:23.322Z,63.50
2022-10-11T13:12:27.389Z,63.80
2022-10-11T13:17:37.254Z,63.80
2022-10-11T13:22:42.412Z,63.90
2022-10-11T13:27:45.418Z,64.10
2022-10-11T13:32:48.467Z,63.90
2022-10-11T13:37:52.632Z,64.30
2022-10-11T13:42:55.853Z,64.20
2022-10-11T13:47:58.945Z,64.10
2022-10-11T13:53:04.321Z,63.70
2022-10-11T13:58:13.808Z,63.90
2022-10-11T14:03:20.924Z,63.70
2022-10-11T14:08:27.110Z,63.60
2022-10-11T14:13:32.043Z,63.70
2022-10-11T14:18:47.714Z,64.00
2022-10-11T14:23:52.977Z,63.50
2022-10-11T14:28:57.837Z,63.90
2022-10-11T14:34:00.694Z,63.60
2022-10-11T14:39:07.336Z,63.70
2022-10-11T14:44:10.517Z,63.60
2022-10-11T14:49:14.482Z,63.50
2022-10-11T14:54:20.282Z,63.30
2022-10-11T14:59:23.750Z,63.60
2022-10-11T15:04:27.132Z,63.60
2022-10-11T15:09:31.450Z,63.20
2022-10-11T15:14:34.086Z,63.50
2022-10-11T15:19:37.562Z,63.70
2022-10-11T15:24:41.527Z,62.90
2022-10-11T15:29:44.308Z,63.00
2022-10-11T15:34:46.899Z,63.10
2022-10-11T15:39:50.903Z,62.80
2022-10-11T15:44:53.554Z,62.50
2022-10-11T15:49:56.148Z,62.80
2022-10-11T15:55:00.085Z,63.30
2022-10-11T16:00:03.028Z,63.40
2022-10-11T16:05:06.059Z,63.20
2022-10-11T16:10:10.454Z,63.50
2022-10-11T16:15:13.040Z,63.60
2022-10-11T16:20:18.557Z,63.70
2022-10-11T16:25:23.430Z,63.70
2022-10-11T16:30:26.048Z,63.90
2022-10-11T16:35:32.409Z,63.50
2022-10-11T16:40:37.581Z,62.60
2022-10-11T16:45:40.161Z,62.60
2022-10-11T16:50:42.767Z,62.60
2022-10-11T16:55:46.702Z,62.50
2022-10-11T17:00:50.582Z,62.60
2022-10-11T17:05:53.330Z,62.60
2022-10-11T17:10:57.861Z,62.50
2022-10-11T17:16:00.710Z,62.90
2022-10-11T17:21:03.606Z,63.10
2022-10-11T17:26:11.193Z,62.90
2022-10-11T17:31:14.314Z,62.90
2022-10-11T17:36:19.729Z,63.00
2022-10-11T17:41:26.031Z,62.80
2022-10-11T17:46:32.805Z,63.20
2022-10-11T17:51:36.112Z,63.00
2022-10-11T17:56:40.995Z,63.10
2022-10-11T18:01:43.904Z,63.30
2022-10-11T18:06:47.236Z,63.10
2022-10-11T18:11:51.503Z,63.50
2022-10-11T18:16:54.132Z,63.50
2022-10-11T18:21:56.714Z,63.40
2022-10-11T18:27:00.644Z,63.40
2022-10-11T18:32:03.265Z,63.40
2022-10-11T18:37:05.856Z,63.20
2022-10-11T18:42:09.815Z,63.30
2022-10-11T18:47:12.793Z,63.60
2022-10-11T18:52:15.627Z,63.50
2022-10-11T18:57:19.740Z,63.70
2022-10-11T19:02:22.329Z,63.60
2022-10-11T19:07:24.930Z,63.60
2022-10-11T19:12:29.022Z,63.60
2022-10-11T19:17:31.615Z,63.70
2022-10-11T19:22:34.358Z,63.80
2022-10-11T19:27:38.282Z,63.60
2022-10-11T19:32:40.910Z,63.80
2022-10-11T19:37:43.498Z,63.60
2022-10-11T19:42:47.449Z,63.40
2022-10-11T19:47:50.036Z,63.50
2022-10-11T19:52:53.365Z,63.60
2022-10-11T19:57:57.323Z,63.70
2022-10-11T20:03:01.154Z,63.70
2022-10-11T20:08:03.970Z,63.80
2022-10-11T20:13:11.498Z,63.70
2022-10-11T20:18:14.096Z,63.60
2022-10-11T20:23:18.271Z,63.70
2022-10-11T20:28:23.726Z,63.40
2022-10-11T20:33:26.466Z,63.70
2022-10-11T20:38:29.654Z,63.50
2022-10-11T20:43:33.658Z,63.90
2022-10-11T20:48:36.957Z,63.60
2022-10-11T20:53:39.577Z,63.50
2022-10-11T20:58:43.909Z,63.40
2022-10-11T21:03:46.526Z,63.40
2022-10-11T21:08:49.112Z,63.40
2022-10-11T21:13:56.154Z,63.50
2022-10-11T21:18:59.310Z,63.70
2022-10-11T21:24:02.869Z,63.70
2022-10-11T21:29:07.476Z,63.70
2022-10-11T21:34:10.087Z,63.70
2022-10-11T21:39:12.701Z,63.70
2022-10-11T21:44:16.747Z,63.70
2022-10-11T21:49:20.255Z,63.70
2022-10-11T21:54:22.894Z,63.70
2022-10-11T21:59:26.847Z,63.70
2022-10-11T22:04:29.531Z,63.80
2022-10-11T22:09:34.950Z,63.70
2022-10-11T22:14:38.918Z,63.80
2022-10-11T22:19:41.593Z,63.90
2022-10-11T22:24:44.233Z,63.80
2022-10-11T22:29:48.171Z,64.10
2022-10-11T22:34:50.763Z,63.80
2022-10-11T22:39:53.468Z,63.70
2022-10-11T22:44:57.812Z,63.90
2022-10-11T22:50:00.415Z,63.90
2022-10-11T22:55:03.015Z,63.80
2022-10-11T23:00:12.143Z,63.80
2022-10-11T23:05:15.095Z,64.00
2022-10-11T23:10:18.833Z,63.90
2022-10-11T23:15:22.790Z,63.90
2022-10-11T23:20:25.382Z,63.90
2022-10-11T23:25:27.987Z,63.90
2022-10-11T23:30:31.981Z,64.00
2022-10-11T23:35:34.989Z,64.30
2022-10-11T23:40:37.587Z,64.00
2022-10-11T23:45:42.449Z,64.00
2022-10-11T23:50:45.032Z,63.90
2022-10-11T23:55:47.675Z,64.10
